Time;durP1;ratioP1;P1;durP2;ratioP2;P2;SDS_P1;SDS_P2;PMS_P1;PMS_P2;Temp;Humidity;BMP_temperature;BMP_pressure;BME280_temperature;BME280_humidity;BME280_pressure;Samples;Min_cycle;Max_cycle;Signal;HPM_P1;HPM_P2
2023/12/17 00:02:03;;;;;;;3.85;1.95;;;;;;;7.45;64.08;102204.13;10504675;28;20050;-68
2023/12/17 00:07:05;;;;;;;9.05;2.28;;;;;;;7.47;64.02;102218.00;10504804;28;20109;-68
2023/12/17 00:12:07;;;;;;;5.15;2.00;;;;;;;7.47;63.96;102223.19;10501860;28;20504;-68
2023/12/17 00:17:10;;;;;;;4.07;2.08;;;;;;;7.47;64.09;102218.84;10501209;28;20594;-67
2023/12/17 00:22:12;;;;;;;5.50;2.22;;;;;;;7.42;64.28;102235.38;10502964;28;20051;-68
2023/12/17 00:27:15;;;;;;;5.00;2.17;;;;;;;7.43;64.23;102237.09;10500333;28;20044;-69
2023/12/17 00:32:18;;;;;;;4.45;1.98;;;;;;;7.46;64.26;102243.16;10485339;28;20048;-68
2023/12/17 00:37:20;;;;;;;6.63;2.20;;;;;;;7.48;64.34;102236.19;10465015;28;20532;-68
2023/12/17 00:42:22;;;;;;;6.13;2.75;;;;;;;7.43;64.41;102240.56;10464624;28;20795;-69
2023/12/17 00:47:24;;;;;;;4.40;1.95;;;;;;;7.40;64.61;102237.16;10491454;28;20162;-69
2023/12/17 00:52:26;;;;;;;8.02;2.20;;;;;;;7.34;64.96;102227.66;10465632;28;20048;-69
2023/12/17 00:57:28;;;;;;;7.40;2.50;;;;;;;7.39;64.87;102220.66;10471855;28;20099;-68
2023/12/17 01:02:30;;;;;;;6.05;2.05;;;;;;;7.39;65.00;102210.25;10469685;28;20106;-68
2023/12/17 01:07:33;;;;;;;5.10;2.35;;;;;;;7.41;65.09;102208.47;10471427;28;20053;-68
2023/12/17 01:12:35;;;;;;;5.18;2.72;;;;;;;7.36;65.14;102196.41;10478464;28;20292;-68
2023/12/17 01:17:37;;;;;;;4.25;2.20;;;;;;;7.28;65.45;102195.63;10478103;28;20127;-69
2023/12/17 01:22:39;;;;;;;8.05;2.55;;;;;;;7.29;65.33;102202.53;10475350;28;20178;-68
2023/12/17 01:27:41;;;;;;;5.20;2.45;;;;;;;7.30;65.46;102199.06;10476681;28;20043;-68
2023/12/17 01:32:43;;;;;;;6.72;2.15;;;;;;;7.36;65.33;102207.69;10475220;28;20488;-68
2023/12/17 01:37:45;;;;;;;7.30;2.38;;;;;;;7.38;65.36;102213.75;10511742;28;20044;-68
2023/12/17 01:42:47;;;;;;;6.43;2.47;;;;;;;7.33;65.45;102214.66;10516401;28;20054;-69
2023/12/17 01:47:50;;;;;;;5.05;2.28;;;;;;;7.27;65.56;102226.00;10514915;28;20478;-69
2023/12/17 01:52:52;;;;;;;6.78;2.90;;;;;;;7.27;65.63;102223.38;10519453;28;20409;-68
2023/12/17 01:57:56;;;;;;;5.45;2.00;;;;;;;7.36;65.62;102225.91;10517751;28;20052;-68
2023/12/17 02:02:58;;;;;;;3.72;1.98;;;;;;;7.45;65.46;102219.75;10498086;28;20797;-68
2023/12/17 02:08:04;;;;;;;6.47;2.47;;;;;;;7.40;65.52;102211.97;10497673;28;20040;-69
2023/12/17 02:13:09;;;;;;;3.50;2.00;;;;;;;7.44;65.56;102212.81;10516619;28;20056;-68
2023/12/17 02:18:12;;;;;;;3.85;2.10;;;;;;;7.48;65.40;102202.34;10498427;28;20258;-68
2023/12/17 02:23:14;;;;;;;3.50;2.25;;;;;;;7.29;65.56;102198.19;10514948;28;20051;-70
2023/12/17 02:28:16;;;;;;;5.97;2.33;;;;;;;7.26;65.81;102198.25;10531337;27;20105;-69
2023/12/17 02:33:18;;;;;;;4.20;1.92;;;;;;;7.38;65.65;102186.84;10513166;28;20051;-69
2023/12/17 02:38:21;;;;;;;3.78;1.90;;;;;;;7.36;65.67;102184.25;10514670;28;20048;-69
2023/12/17 02:43:23;;;;;;;3.47;1.75;;;;;;;7.42;65.52;102194.59;10517049;28;20486;-68
2023/12/17 02:48:25;;;;;;;6.45;2.25;;;;;;;7.34;65.67;102178.22;10515702;28;20462;-69
2023/12/17 02:53:27;;;;;;;7.07;2.40;;;;;;;7.40;65.55;102172.94;10513243;28;20091;-69
2023/12/17 02:58:29;;;;;;;3.47;1.98;;;;;;;7.50;65.43;102160.66;10514857;28;20143;-69
2023/12/17 03:03:31;;;;;;;5.20;2.05;;;;;;;7.54;65.32;102152.81;10513206;28;20174;-69
2023/12/17 03:08:33;;;;;;;5.78;2.38;;;;;;;7.53;65.33;102153.66;10515082;28;20451;-69
2023/12/17 03:13:35;;;;;;;6.85;2.30;;;;;;;7.48;65.41;102155.47;10515369;28;20043;-69
2023/12/17 03:18:37;;;;;;;4.63;1.80;;;;;;;7.50;65.52;102161.53;10516259;28;20771;-69
2023/12/17 03:23:39;;;;;;;4.88;1.85;;;;;;;7.60;65.31;102162.28;10495414;28;20043;-69
2023/12/17 03:28:41;;;;;;;5.32;1.80;;;;;;;7.57;65.28;102155.34;10514072;28;20543;-68
2023/12/17 03:33:44;;;;;;;6.93;1.80;;;;;;;7.49;65.46;102154.59;10510407;28;20468;-69
2023/12/17 03:38:47;;;;;;;6.05;2.13;;;;;;;7.43;65.53;102148.59;10493927;28;20050;-69
2023/12/17 03:43:51;;;;;;;4.03;1.98;;;;;;;7.43;65.64;102144.25;10512377;28;20039;-68
2023/12/17 03:48:53;;;;;;;3.70;1.88;;;;;;;7.47;65.64;102143.34;10514310;28;20582;-68
2023/12/17 03:53:55;;;;;;;3.92;1.92;;;;;;;7.48;65.46;102136.38;10512180;28;20055;-69
2023/12/17 03:58:57;;;;;;;2.72;1.60;;;;;;;7.50;65.42;102132.91;10513720;28;20036;-69
2023/12/17 04:03:59;;;;;;;3.13;1.80;;;;;;;7.44;65.78;102130.38;10513692;28;20067;-68
2023/12/17 04:09:03;;;;;;;5.75;2.25;;;;;;;7.56;65.44;102119.81;10495280;28;20055;-68
2023/12/17 04:14:05;;;;;;;3.63;2.13;;;;;;;7.63;65.16;102121.44;10513136;28;20040;-68
2023/12/17 04:19:08;;;;;;;3.55;1.92;;;;;;;7.61;65.24;102122.34;10515048;28;20044;-68
2023/12/17 04:24:10;;;;;;;2.55;1.25;;;;;;;7.52;65.35;102117.25;10513765;28;20055;-68
2023/12/17 04:29:12;;;;;;;3.00;1.38;;;;;;;7.33;65.57;102119.22;10511494;28;20182;-68
2023/12/17 04:34:14;;;;;;;2.05;1.30;;;;;;;7.16;65.87;102119.41;10490957;28;20059;-69
2023/12/17 04:39:16;;;;;;;2.35;1.27;;;;;;;7.18;65.85;102120.25;10513162;28;20040;-69
2023/12/17 04:44:18;;;;;;;1.92;1.38;;;;;;;7.17;65.80;102115.06;10485182;28;20051;-68
2023/12/17 04:49:20;;;;;;;2.72;1.17;;;;;;;7.17;65.79;102125.47;10522409;28;20052;-68
2023/12/17 04:54:24;;;;;;;2.47;1.52;;;;;;;7.04;66.06;102135.13;10521757;28;20054;-68
2023/12/17 04:59:26;;;;;;;3.10;1.30;;;;;;;6.97;66.20;102135.22;10503589;28;20051;-67
2023/12/17 05:04:28;;;;;;;3.88;1.40;;;;;;;7.00;66.13;102127.38;10517186;28;20373;-68
2023/12/17 05:09:30;;;;;;;3.08;1.55;;;;;;;7.03;65.95;102132.56;10518234;28;20262;-68
2023/12/17 05:14:32;;;;;;;1.98;1.30;;;;;;;6.97;65.88;102132.63;10500782;28;20044;-69
2023/12/17 05:19:34;;;;;;;4.90;1.67;;;;;;;6.93;65.99;102129.19;10518500;28;20038;-67
2023/12/17 05:24:36;;;;;;;5.07;2.17;;;;;;;6.80;66.25;102114.56;10520129;28;20048;-67
2023/12/17 05:29:38;;;;;;;4.90;2.05;;;;;;;6.87;66.27;102131.00;10496948;28;20415;-67
2023/12/17 05:34:40;;;;;;;3.25;1.58;;;;;;;6.88;65.92;102136.16;10531818;27;20380;-67
2023/12/17 05:39:42;;;;;;;3.28;1.65;;;;;;;6.90;66.07;102133.53;10516131;28;20044;-69
2023/12/17 05:44:44;;;;;;;2.40;1.42;;;;;;;6.91;66.06;102130.97;10486106;28;20139;-67
2023/12/17 05:49:46;;;;;;;3.17;1.40;;;;;;;6.73;66.26;102130.25;10498677;28;20048;-67
2023/12/17 05:54:49;;;;;;;4.82;1.92;;;;;;;6.68;66.61;102126.81;10517161;28;20058;-67
2023/12/17 05:59:51;;;;;;;5.10;2.08;;;;;;;6.76;66.31;102122.41;10533672;27;20522;-68
2023/12/17 06:04:53;;;;;;;4.53;2.33;;;;;;;6.77;66.39;102125.03;10532067;27;20729;-68
2023/12/17 06:09:55;;;;;;;5.75;2.00;;;;;;;6.54;66.74;102118.28;10514759;28;20047;-68
2023/12/17 06:14:57;;;;;;;3.20;1.80;;;;;;;6.60;66.76;102118.22;10517396;28;20914;-68
2023/12/17 06:20:02;;;;;;;4.22;1.80;;;;;;;6.73;66.66;102123.34;10497770;28;20048;-68
2023/12/17 06:25:04;;;;;;;3.05;1.70;;;;;;;6.68;66.59;102126.81;10533325;27;20036;-69
2023/12/17 06:30:08;;;;;;;5.57;1.73;;;;;;;6.72;66.59;102126.78;10516041;28;20051;-69
2023/12/17 06:35:10;;;;;;;3.42;2.00;;;;;;;6.45;66.97;102127.03;10516602;28;20059;-69
2023/12/17 06:40:15;;;;;;;5.07;2.25;;;;;;;6.32;67.43;102128.00;10530923;27;20411;-68
2023/12/17 06:45:17;;;;;;;4.65;2.08;;;;;;;6.48;67.10;102136.53;10497575;28;20040;-69
2023/12/17 06:50:19;;;;;;;3.10;1.55;;;;;;;6.57;66.99;102131.28;10514105;28;20148;-69
2023/12/17 06:55:21;;;;;;;3.58;1.85;;;;;;;6.55;66.93;102131.25;10514780;28;20063;-69
2023/12/17 07:00:23;;;;;;;3.65;1.90;;;;;;;6.52;66.82;102141.72;10514186;28;20465;-70
2023/12/17 07:05:25;;;;;;;3.53;1.63;;;;;;;6.57;66.96;102132.13;10528460;28;20043;-69
2023/12/17 07:10:27;;;;;;;6.85;2.05;;;;;;;6.62;66.74;102129.47;10513812;28;20249;-70
2023/12/17 07:15:29;;;;;;;3.95;1.80;;;;;;;6.59;66.65;102127.81;10510539;28;20126;-69
2023/12/17 07:20:31;;;;;;;3.50;2.08;;;;;;;6.57;66.83;102137.31;10513703;28;20113;-70
2023/12/17 07:25:33;;;;;;;3.10;1.73;;;;;;;6.59;66.57;102145.13;10515098;28;20125;-70
2023/12/17 07:30:35;;;;;;;6.70;2.10;;;;;;;6.64;66.77;102141.59;10514345;28;20192;-68
2023/12/17 07:35:38;;;;;;;3.25;1.83;;;;;;;6.73;66.60;102138.94;10512946;28;20397;-68
2023/12/17 07:40:40;;;;;;;3.72;2.03;;;;;;;6.74;66.50;102131.97;10512690;28;20151;-69
2023/12/17 07:45:42;;;;;;;4.38;2.05;;;;;;;6.81;66.52;102138.84;10496624;28;20055;-70
2023/12/17 07:50:44;;;;;;;4.40;2.00;;;;;;;6.78;66.38;102136.28;10496790;28;20056;-69
2023/12/17 07:55:46;;;;;;;4.63;2.10;;;;;;;6.73;66.52;102136.34;10511470;28;20052;-69
2023/12/17 08:00:48;;;;;;;4.32;2.13;;;;;;;6.72;66.58;102136.31;10513859;28;20707;-70
2023/12/17 08:05:52;;;;;;;7.65;2.70;;;;;;;6.71;66.54;102132.88;10511491;28;20131;-69
2023/12/17 08:10:55;;;;;;;3.20;1.92;;;;;;;6.74;66.56;102143.25;10495617;28;20051;-68
2023/12/17 08:15:58;;;;;;;2.85;1.60;;;;;;;6.75;66.61;102133.72;10496123;28;20046;-69
2023/12/17 08:21:01;;;;;;;7.82;2.00;;;;;;;6.76;66.43;102138.03;10515275;28;20052;-69
2023/12/17 08:26:03;;;;;;;4.65;2.22;;;;;;;6.74;66.53;102142.38;10506748;28;20039;-69
2023/12/17 08:31:09;;;;;;;4.68;2.10;;;;;;;6.78;66.48;102146.66;10510728;28;20101;-68
2023/12/17 08:36:11;;;;;;;5.47;1.98;;;;;;;6.92;66.17;102150.00;10509059;28;20071;-69
2023/12/17 08:41:14;;;;;;;3.33;1.60;;;;;;;6.95;66.02;102152.59;10511535;28;20130;-69
2023/12/17 08:46:16;;;;;;;3.58;1.73;;;;;;;6.95;65.94;102155.19;10493543;28;20093;-68
2023/12/17 08:51:18;;;;;;;3.08;1.70;;;;;;;7.03;65.92;102153.38;10512453;28;20054;-68
2023/12/17 08:56:20;;;;;;;5.82;2.05;;;;;;;7.08;65.53;102151.59;10521125;28;20052;-69
2023/12/17 09:01:24;;;;;;;4.15;1.80;;;;;;;7.20;65.66;102147.09;10507174;28;20207;-69
2023/12/17 09:06:26;;;;;;;2.60;1.60;;;;;;;7.36;65.34;102153.03;10515269;28;20044;-69
2023/12/17 09:11:29;;;;;;;3.13;1.48;;;;;;;7.41;65.27;102153.81;10491771;28;20388;-70
2023/12/17 09:16:31;;;;;;;4.25;2.00;;;;;;;7.41;65.18;102151.22;10517076;28;20044;-70
2023/12/17 09:21:33;;;;;;;2.38;1.52;;;;;;;7.37;65.13;102151.25;10496033;28;20058;-70
2023/12/17 09:26:35;;;;;;;4.25;2.13;;;;;;;7.51;65.27;102152.81;10514531;28;20038;-71
2023/12/17 09:31:39;;;;;;;3.88;1.75;;;;;;;7.67;64.91;102153.53;10508361;28;20048;-70
2023/12/17 09:36:42;;;;;;;2.40;1.45;;;;;;;7.67;64.87;102156.97;10494487;28;20040;-70
2023/12/17 09:41:44;;;;;;;3.53;1.70;;;;;;;7.89;64.60;102157.56;10490118;28;20089;-68
2023/12/17 09:46:46;;;;;;;5.72;1.92;;;;;;;7.84;64.36;102152.41;10514485;28;20055;-69
2023/12/17 09:52:07;;;;;;;4.60;2.45;;;;;;;7.89;64.18;102150.63;10514604;28;20048;-70
2023/12/17 09:57:11;;;;;;;5.88;1.80;;;;;;;7.83;64.55;102142.84;10530377;27;20559;-70
2023/12/17 10:02:15;;;;;;;5.65;2.28;;;;;;;8.00;64.23;102148.72;10510550;28;20531;-70
2023/12/17 10:07:17;;;;;;;2.80;1.60;;;;;;;7.99;64.07;102149.59;10495093;28;20687;-67
2023/12/17 10:12:20;;;;;;;3.08;1.50;;;;;;;8.05;63.99;102135.63;10478929;28;20043;-67
2023/12/17 10:17:22;;;;;;;4.82;1.90;;;;;;;8.13;63.85;102138.16;10515601;28;20104;-67
2023/12/17 10:22:24;;;;;;;6.18;2.28;;;;;;;8.18;63.70;102137.19;10513734;28;20499;-67
2023/12/17 10:27:27;;;;;;;4.32;2.00;;;;;;;8.17;63.67;102134.59;10510171;28;20476;-68
2023/12/17 10:32:30;;;;;;;4.30;2.15;;;;;;;8.27;63.44;102113.59;10513665;28;20048;-67
2023/12/17 10:37:33;;;;;;;4.28;2.35;;;;;;;8.45;63.23;102102.88;10513624;28;20125;-68
2023/12/17 10:42:36;;;;;;;4.18;2.25;;;;;;;8.40;62.97;102089.06;10510815;28;20043;-67
2023/12/17 10:47:40;;;;;;;4.13;1.90;;;;;;;8.51;62.98;102088.84;10477374;28;20838;-68
2023/12/17 10:52:45;;;;;;;5.13;1.85;;;;;;;8.59;62.86;102081.75;10509654;28;20071;-67
2023/12/17 10:57:55;;;;;;;5.57;1.65;;;;;;;8.56;62.74;102068.78;10508667;28;20435;-67
2023/12/17 11:03:00;;;;;;;4.68;2.15;;;;;;;8.65;62.53;102066.00;10501854;28;20284;-67
2023/12/17 11:08:03;;;;;;;6.25;2.00;;;;;;;8.46;62.85;102051.59;10495000;28;20293;-67
2023/12/17 11:13:05;;;;;;;3.22;1.73;;;;;;;8.50;62.83;102050.63;10513375;28;20848;-67
2023/12/17 11:18:08;;;;;;;3.50;1.75;;;;;;;8.47;62.91;102040.25;10512382;28;20036;-66
2023/12/17 11:23:10;;;;;;;3.28;1.98;;;;;;;8.65;62.51;102047.75;10511207;28;20084;-68
2023/12/17 11:28:23;;;;;;;3.28;2.00;;;;;;;8.70;62.26;102038.97;10512586;28;20048;-68
2023/12/17 11:33:26;;;;;;;3.65;1.70;;;;;;;8.88;62.03;102026.44;10494012;28;20048;-68
2023/12/17 11:38:29;;;;;;;4.72;2.50;;;;;;;9.02;62.02;102025.28;10511976;28;20470;-67
2023/12/17 11:43:31;;;;;;;3.50;1.90;;;;;;;9.16;61.88;102007.56;10493294;28;20563;-67
2023/12/17 11:48:35;;;;;;;4.88;2.45;;;;;;;9.27;61.67;101997.78;10511960;28;20447;-68
2023/12/17 11:53:41;;;;;;;5.32;2.05;;;;;;;9.17;61.35;101993.66;10510797;28;20035;-67
2023/12/17 11:58:50;;;;;;;7.40;1.90;;;;;;;9.32;61.17;101992.47;10526079;28;20562;-68
2023/12/17 12:03:56;;;;;;;2.92;1.55;;;;;;;9.31;60.86;101994.22;10509069;28;20458;-68
2023/12/17 12:08:59;;;;;;;4.93;2.25;;;;;;;9.20;61.17;101992.72;10510987;28;20084;-68
2023/12/17 12:14:03;;;;;;;3.20;1.45;;;;;;;9.05;61.42;101993.03;10488869;28;20044;-68
2023/12/17 12:19:09;;;;;;;5.25;1.55;;;;;;;9.03;61.11;102000.03;10492159;28;20051;-67
2023/12/17 12:24:21;;;;;;;6.32;1.92;;;;;;;8.80;61.60;101982.25;10510997;28;20067;-68
2023/12/17 12:29:23;;;;;;;4.00;1.90;;;;;;;8.77;61.49;101964.06;10511760;28;20062;-67
2023/12/17 12:34:33;;;;;;;5.63;1.65;;;;;;;8.63;61.60;101966.06;10492193;28;20620;-67
2023/12/17 12:39:46;;;;;;;2.78;1.70;;;;;;;8.69;61.69;101947.66;10475913;28;20044;-67
2023/12/17 12:45:05;;;;;;;3.70;2.08;;;;;;;8.80;61.68;101951.81;10504829;28;20055;-67
2023/12/17 12:50:09;;;;;;;4.03;1.98;;;;;;;8.66;61.60;101947.75;10486001;28;20491;-68
2023/12/17 12:55:11;;;;;;;3.22;1.70;;;;;;;8.53;62.28;101933.22;10493677;28;20032;-68
2023/12/17 13:00:13;;;;;;;5.45;1.90;;;;;;;8.50;62.10;101928.06;10509383;28;20098;-68
2023/12/17 13:05:15;;;;;;;8.35;2.45;;;;;;;8.47;62.45;101915.94;10512378;28;20052;-66
2023/12/17 13:10:17;;;;;;;7.50;2.45;;;;;;;8.43;62.47;101911.69;10464040;28;20058;-66
2023/12/17 13:15:22;;;;;;;4.72;1.90;;;;;;;8.44;62.74;101909.94;10516987;28;20265;-67
2023/12/17 13:20:24;;;;;;;5.15;2.10;;;;;;;8.33;63.29;101897.13;10497822;28;20044;-67
2023/12/17 13:25:29;;;;;;;12.50;2.47;;;;;;;8.35;62.81;101894.47;10517247;28;20040;-67
2023/12/17 13:30:31;;;;;;;5.63;2.22;;;;;;;8.33;63.03;101875.38;10496972;28;20255;-67
2023/12/17 13:35:36;;;;;;;3.72;1.83;;;;;;;8.33;62.86;101872.78;10483209;28;21393;-67
2023/12/17 13:40:39;;;;;;;2.78;1.83;;;;;;;8.32;62.85;101865.88;10515971;28;20472;-67
2023/12/17 13:45:41;;;;;;;4.22;1.63;;;;;;;8.23;63.09;101868.66;10533366;27;20056;-67
2023/12/17 13:50:43;;;;;;;2.88;1.70;;;;;;;8.20;63.37;101873.94;10515648;28;20144;-67
2023/12/17 13:55:46;;;;;;;4.20;1.73;;;;;;;8.19;63.38;101860.03;10497537;28;20341;-67
2023/12/17 14:00:48;;;;;;;4.15;2.30;;;;;;;8.09;63.80;101858.47;10515333;28;20311;-67
2023/12/17 14:05:50;;;;;;;4.40;2.17;;;;;;;8.06;63.98;101855.06;10513119;28;20048;-67
2023/12/17 14:10:52;;;;;;;3.78;1.85;;;;;;;7.88;64.05;101857.09;10496167;28;20060;-67
2023/12/17 14:15:57;;;;;;;3.28;1.60;;;;;;;7.92;64.04;101855.28;10510642;28;20130;-67
2023/12/17 14:20:59;;;;;;;3.22;1.75;;;;;;;7.93;64.15;101859.63;10508941;28;20044;-66
2023/12/17 14:26:01;;;;;;;1.95;1.45;;;;;;;7.97;64.03;101858.69;10515152;28;20051;-66
2023/12/17 14:31:03;;;;;;;3.80;1.75;;;;;;;7.94;64.13;101856.13;10512321;28;20040;-67
2023/12/17 14:36:05;;;;;;;3.35;1.85;;;;;;;7.88;64.15;101854.50;10511356;28;20044;-66
2023/12/17 14:41:08;;;;;;;5.07;1.98;;;;;;;7.76;64.21;101856.47;10510832;28;20052;-68
2023/12/17 14:46:10;;;;;;;4.15;1.80;;;;;;;7.58;64.71;101847.22;10527212;28;20079;-67
2023/12/17 14:51:12;;;;;;;7.43;3.20;;;;;;;7.49;65.04;101849.97;10511834;28;20048;-66
2023/12/17 14:56:14;;;;;;;3.78;1.52;;;;;;;7.41;65.21;101841.44;10512587;28;20052;-67
2023/12/17 15:01:17;;;;;;;2.55;1.60;;;;;;;7.34;65.27;101847.66;10508728;28;20192;-68
2023/12/17 15:06:32;;;;;;;7.10;2.05;;;;;;;7.27;65.39;101843.41;10507223;28;20584;-67
2023/12/17 15:11:36;;;;;;;4.20;2.28;;;;;;;7.20;65.55;101844.41;10491207;28;20500;-67
2023/12/17 15:16:40;;;;;;;3.15;1.77;;;;;;;7.10;65.29;101848.88;10511364;28;20039;-66
2023/12/17 15:21:42;;;;;;;4.03;2.33;;;;;;;7.01;65.52;101849.03;10512379;28;20492;-67
2023/12/17 15:26:44;;;;;;;5.00;1.63;;;;;;;6.95;65.71;101843.91;10511582;28;20040;-68
2023/12/17 15:31:46;;;;;;;4.93;1.95;;;;;;;6.91;65.85;101841.38;10511118;28;20060;-67
2023/12/17 15:36:48;;;;;;;4.18;2.00;;;;;;;6.95;65.88;101835.25;10493096;28;20364;-67
2023/12/17 15:41:50;;;;;;;3.95;2.05;;;;;;;7.02;65.65;101835.13;10494388;28;20040;-68
2023/12/17 15:46:52;;;;;;;5.05;1.92;;;;;;;7.00;65.66;101836.00;10490030;28;20052;-67
2023/12/17 15:51:54;;;;;;;4.13;2.15;;;;;;;6.97;65.70;101842.16;10506804;28;20136;-67
2023/12/17 15:56:56;;;;;;;5.85;2.47;;;;;;;7.03;65.71;101841.19;10511190;28;20119;-67
2023/12/17 16:02:01;;;;;;;3.28;1.80;;;;;;;7.10;65.72;101841.06;10475044;28;20051;-67
2023/12/17 16:07:05;;;;;;;4.90;2.55;;;;;;;7.17;65.80;101834.03;10507869;28;20393;-67
2023/12/17 16:12:08;;;;;;;4.10;2.35;;;;;;;7.26;65.84;101839.09;10509693;28;20594;-67
2023/12/17 16:17:10;;;;;;;5.75;2.47;;;;;;;7.32;65.88;101840.75;10511606;28;20036;-67
2023/12/17 16:22:12;;;;;;;9.20;2.92;;;;;;;7.42;65.68;101845.78;10492628;28;20063;-66
2023/12/17 16:27:14;;;;;;;5.60;2.85;;;;;;;7.40;65.92;101846.69;10511833;28;20147;-66
2023/12/17 16:32:16;;;;;;;5.03;2.70;;;;;;;7.31;66.18;101852.88;10510665;28;20063;-66
2023/12/17 16:37:18;;;;;;;6.43;3.05;;;;;;;7.41;66.13;101849.25;10509710;28;20048;-66
2023/12/17 16:42:21;;;;;;;6.10;2.70;;;;;;;7.49;65.81;101856.97;10534222;28;20522;-66
2023/12/17 16:47:23;;;;;;;8.25;3.33;;;;;;;7.40;65.88;101851.88;10481604;28;20392;-66
2023/12/17 16:52:25;;;;;;;4.57;2.63;;;;;;;7.43;66.10;101863.09;10514347;28;20043;-67
2023/12/17 16:57:27;;;;;;;7.25;3.33;;;;;;;7.50;66.11;101861.25;10516660;28;20047;-66
2023/12/17 17:02:29;;;;;;;8.55;4.93;;;;;;;7.47;65.95;101861.31;10496561;28;20065;-67
2023/12/17 17:07:31;;;;;;;11.13;3.78;;;;;;;7.42;65.99;101863.13;10514017;28;20453;-67
2023/12/17 17:12:33;;;;;;;8.57;3.58;;;;;;;7.44;65.90;101870.03;10511477;28;20109;-67
2023/12/17 17:17:35;;;;;;;7.30;3.22;;;;;;;7.45;66.06;101870.91;10516002;28;20131;-67
2023/12/17 17:22:37;;;;;;;7.00;3.47;;;;;;;7.35;66.24;101880.59;10511320;28;20052;-67
2023/12/17 17:27:40;;;;;;;7.80;3.72;;;;;;;7.27;66.56;101879.84;10510988;28;20075;-67
2023/12/17 17:32:43;;;;;;;6.72;3.25;;;;;;;7.31;66.48;101881.50;10488870;28;20058;-67
2023/12/17 17:37:47;;;;;;;6.88;3.45;;;;;;;7.14;66.57;101881.75;10491875;28;20063;-67
2023/12/17 17:42:49;;;;;;;26.80;4.45;;;;;;;7.05;67.02;101886.25;10523461;28;20059;-67
2023/12/17 17:47:51;;;;;;;6.03;3.67;;;;;;;7.13;67.05;101885.25;10511485;28;20999;-67
2023/12/17 17:52:54;;;;;;;9.30;4.15;;;;;;;7.16;66.90;101890.41;10507689;28;20488;-68
2023/12/17 17:57:56;;;;;;;31.50;4.45;;;;;;;7.08;66.76;101881.03;10477677;28;20105;-67
2023/12/17 18:02:59;;;;;;;7.65;3.78;;;;;;;7.00;67.06;101898.44;10505297;28;20051;-67
2023/12/17 18:08:01;;;;;;;11.32;4.15;;;;;;;6.92;66.81;101898.56;10509977;28;20055;-67
2023/12/17 18:13:04;;;;;;;7.95;4.22;;;;;;;6.93;67.14;101896.84;10492731;28;20131;-67
2023/12/17 18:18:07;;;;;;;33.45;4.28;;;;;;;6.96;67.18;101894.16;10515752;28;20036;-66
2023/12/17 18:23:10;;;;;;;19.15;3.67;;;;;;;6.90;67.07;101900.31;10508358;28;20040;-66
2023/12/17 18:28:13;;;;;;;6.60;3.30;;;;;;;6.89;67.02;101902.94;10531150;27;20504;-66
2023/12/17 18:33:15;;;;;;;5.75;3.45;;;;;;;6.86;66.93;101901.25;10512051;28;20050;-66
2023/12/17 18:38:18;;;;;;;40.67;3.80;;;;;;;6.71;67.25;101900.59;10513763;28;20055;-66
2023/12/17 18:43:20;;;;;;;8.10;2.95;;;;;;;6.73;67.29;101893.63;10511289;28;20154;-66
2023/12/17 18:48:22;;;;;;;8.43;3.58;;;;;;;6.71;67.18;101898.00;10510618;28;20055;-66
2023/12/17 18:53:24;;;;;;;33.88;3.65;;;;;;;6.74;67.22;101891.00;10491116;28;20042;-68
2023/12/17 18:58:26;;;;;;;6.47;3.58;;;;;;;6.71;67.19;101890.19;10510166;28;20131;-66
2023/12/17 19:03:29;;;;;;;12.90;3.90;;;;;;;6.60;67.08;101892.06;10510209;28;20040;-66
2023/12/17 19:08:32;;;;;;;5.65;2.97;;;;;;;6.60;67.24;101902.44;10480939;28;20063;-65
2023/12/17 19:13:33;;;;;;;12.82;4.63;;;;;;;6.59;66.92;101903.34;10508000;28;20076;-67
2023/12/17 19:18:38;;;;;;;46.95;4.38;;;;;;;6.46;67.11;101896.56;10494688;28;20054;-67
2023/12/17 19:23:40;;;;;;;32.42;3.70;;;;;;;6.26;67.83;101894.19;10508304;28;20048;-68
2023/12/17 19:28:42;;;;;;;8.90;3.78;;;;;;;6.49;67.85;101904.34;10511466;28;20052;-68
2023/12/17 19:33:44;;;;;;;6.20;2.75;;;;;;;6.56;67.42;101898.16;10511964;28;20437;-68
2023/12/17 19:38:46;;;;;;;19.70;3.63;;;;;;;6.55;67.38;101909.47;10509944;28;20063;-68
2023/12/17 19:43:48;;;;;;;4.85;3.03;;;;;;;6.56;67.66;101895.56;10492717;28;20134;-67
2023/12/17 19:48:50;;;;;;;10.77;3.85;;;;;;;6.59;67.49;101885.16;10492871;28;20044;-67
2023/12/17 19:53:53;;;;;;;11.52;4.05;;;;;;;6.54;67.51;101892.13;10510139;28;20392;-66
2023/12/17 19:58:56;;;;;;;5.63;3.33;;;;;;;6.35;67.86;101896.69;10510577;28;20384;-66
2023/12/17 20:03:58;;;;;;;15.25;3.03;;;;;;;6.27;67.69;101894.19;10506409;28;20147;-66
2023/12/17 20:09:00;;;;;;;5.05;2.60;;;;;;;6.29;67.99;101882.03;10508189;28;20128;-67
2023/12/17 20:14:03;;;;;;;14.73;2.95;;;;;;;6.25;67.74;101885.53;10506393;28;20169;-66
2023/12/17 20:19:06;;;;;;;5.53;2.60;;;;;;;6.20;67.93;101884.72;10508890;28;20478;-67
2023/12/17 20:24:08;;;;;;;5.53;2.72;;;;;;;6.20;67.71;101883.84;10504707;28;20403;-67
2023/12/17 20:29:10;;;;;;;11.88;3.92;;;;;;;6.17;67.90;101884.72;10507141;28;20052;-67
2023/12/17 20:34:12;;;;;;;11.68;2.35;;;;;;;6.21;67.61;101886.41;10512475;28;20048;-67
2023/12/17 20:39:14;;;;;;;4.88;2.67;;;;;;;6.18;67.75;101883.00;10510121;28;20047;-68
2023/12/17 20:44:16;;;;;;;14.43;3.15;;;;;;;6.18;67.73;101877.81;10506445;28;20125;-68
2023/12/17 20:49:18;;;;;;;12.43;3.00;;;;;;;6.08;67.92;101881.38;10509356;28;20089;-67
2023/12/17 20:54:21;;;;;;;7.07;2.72;;;;;;;6.03;68.04;101884.03;10495030;28;20036;-67
2023/12/17 20:59:23;;;;;;;6.43;3.08;;;;;;;5.91;68.24;101889.34;10512953;28;20500;-67
2023/12/17 21:04:25;;;;;;;6.78;2.35;;;;;;;5.89;67.79;101880.69;10513449;28;20177;-68
2023/12/17 21:09:27;;;;;;;29.60;2.55;;;;;;;5.84;67.82;101882.47;10513569;28;20492;-67
2023/12/17 21:14:29;;;;;;;8.48;3.20;;;;;;;5.72;67.92;101881.72;10512810;28;20452;-68
2023/12/17 21:19:31;;;;;;;7.68;2.25;;;;;;;5.69;67.94;101882.63;10512926;28;20457;-67
2023/12/17 21:24:34;;;;;;;4.40;1.92;;;;;;;5.53;67.97;101886.22;10513827;28;20458;-68
2023/12/17 21:29:36;;;;;;;45.13;2.95;;;;;;;5.48;68.18;101890.56;10519378;28;20072;-66
2023/12/17 21:34:38;;;;;;;9.90;3.08;;;;;;;5.44;68.26;101881.97;10501754;28;20143;-66
2023/12/17 21:39:41;;;;;;;6.18;2.13;;;;;;;5.44;68.05;101876.78;10519785;28;20100;-66
2023/12/17 21:44:43;;;;;;;27.55;3.22;;;;;;;5.46;68.18;101869.84;10520410;28;20036;-66
2023/12/17 21:49:45;;;;;;;3.35;2.10;;;;;;;5.37;68.28;101856.09;10517780;28;20052;-66
2023/12/17 21:54:48;;;;;;;7.15;2.10;;;;;;;5.31;68.07;101856.13;10519587;28;20048;-66
2023/12/17 21:59:50;;;;;;;6.68;2.35;;;;;;;5.31;67.95;101850.94;10518041;28;20047;-66
2023/12/17 22:04:52;;;;;;;71.05;3.35;;;;;;;5.19;67.92;101848.41;10518621;28;20052;-66
2023/12/17 22:09:54;;;;;;;28.55;2.80;;;;;;;5.12;67.94;101851.94;10518488;28;20135;-67
2023/12/17 22:14:56;;;;;;;49.70;3.38;;;;;;;5.04;68.08;101848.53;10500316;28;20051;-68
2023/12/17 22:19:59;;;;;;;3.30;1.40;;;;;;;5.10;67.80;101851.97;10499514;28;20500;-68
2023/12/17 22:25:02;;;;;;;3.65;1.90;;;;;;;5.15;67.48;101842.41;10517786;28;20059;-68
2023/12/17 22:30:04;;;;;;;2.75;1.70;;;;;;;5.07;67.21;101841.59;10515856;28;20059;-68
2023/12/17 22:35:07;;;;;;;3.17;1.80;;;;;;;4.79;67.04;101841.78;10516507;28;20063;-68
2023/12/17 22:40:09;;;;;;;3.90;2.15;;;;;;;4.79;67.51;101831.41;10517639;28;20098;-68
2023/12/17 22:45:11;;;;;;;8.23;2.03;;;;;;;4.89;67.22;101838.25;10517828;28;20437;-68
2023/12/17 22:50:14;;;;;;;46.78;2.45;;;;;;;4.96;67.18;101827.00;10517374;28;20134;-68
2023/12/17 22:55:16;;;;;;;4.95;2.25;;;;;;;5.03;67.00;101826.94;10499909;28;20074;-68
2023/12/17 23:00:18;;;;;;;6.85;1.98;;;;;;;4.98;66.85;101820.06;10499981;28;20044;-68
2023/12/17 23:05:20;;;;;;;7.65;2.88;;;;;;;4.91;66.84;101821.81;10499878;28;20048;-68
2023/12/17 23:10:22;;;;;;;51.30;2.20;;;;;;;4.89;67.04;101817.53;10516779;28;20044;-68
2023/12/17 23:15:24;;;;;;;57.35;3.35;;;;;;;4.71;66.82;101802.94;10517501;28;20067;-68
2023/12/17 23:20:26;;;;;;;37.40;2.17;;;;;;;4.60;67.42;101810.78;10517239;28;20093;-67
2023/12/17 23:25:28;;;;;;;7.30;1.73;;;;;;;4.48;67.20;101805.66;10467679;28;20576;-67